Map

Track Data

SID SEASON NUMBER BASIN SUBBASIN NAME ISO_TIME NATURE LAT LON WMO_WIND WMO_PRES WMO_AGENCY TRACK_TYPE DIST2LAND LANDFALL IFLAG USA_AGENCY USA_ATCF_ID USA_LAT USA_LON USA_RECORD USA_STATUS USA_WIND USA_PRES USA_SSHS USA_R34_NE USA_R34_SE USA_R34_SW USA_R34_NW USA_R50_NE USA_R50_SE USA_R50_SW USA_R50_NW USA_R64_NE USA_R64_SE USA_R64_SW USA_R64_NW USA_POCI USA_ROCI USA_RMW USA_EYE TOKYO_LAT TOKYO_LON TOKYO_GRADE TOKYO_WIND TOKYO_PRES TOKYO_R50_DIR TOKYO_R50_LONG TOKYO_R50_SHORT TOKYO_R30_DIR TOKYO_R30_LONG TOKYO_R30_SHORT TOKYO_LAND CMA_LAT CMA_LON CMA_CAT CMA_WIND CMA_PRES HKO_LAT HKO_LON HKO_CAT HKO_WIND HKO_PRES NEWDELHI_LAT NEWDELHI_LON NEWDELHI_GRADE NEWDELHI_WIND NEWDELHI_PRES NEWDELHI_CI NEWDELHI_DP NEWDELHI_POCI REUNION_LAT REUNION_LON REUNION_TYPE REUNION_WIND REUNION_PRES REUNION_TNUM REUNION_CI REUNION_RMW REUNION_R34_NE REUNION_R34_SE REUNION_R34_SW REUNION_R34_NW REUNION_R50_NE REUNION_R50_SE REUNION_R50_SW REUNION_R50_NW REUNION_R64_NE REUNION_R64_SE REUNION_R64_SW REUNION_R64_NW BOM_LAT BOM_LON BOM_TYPE BOM_WIND BOM_PRES BOM_TNUM BOM_CI BOM_RMW BOM_R34_NE BOM_R34_SE BOM_R34_SW BOM_R34_NW BOM_R50_NE BOM_R50_SE BOM_R50_SW BOM_R50_NW BOM_R64_NE BOM_R64_SE BOM_R64_SW BOM_R64_NW BOM_ROCI BOM_POCI BOM_EYE BOM_POS_METHOD BOM_PRES_METHOD NADI_LAT NADI_LON NADI_CAT NADI_WIND NADI_PRES WELLINGTON_LAT WELLINGTON_LON WELLINGTON_WIND WELLINGTON_PRES DS824_LAT DS824_LON DS824_STAGE DS824_WIND DS824_PRES TD9636_LAT TD9636_LON TD9636_STAGE TD9636_WIND TD9636_PRES TD9635_LAT TD9635_LON TD9635_WIND TD9635_PRES TD9635_ROCI NEUMANN_LAT NEUMANN_LON NEUMANN_CLASS NEUMANN_WIND NEUMANN_PRES MLC_LAT MLC_LON MLC_CLASS MLC_WIND MLC_PRES USA_GUST BOM_GUST BOM_GUST_PER REUNION_GUST REUNION_GUST_PER USA_SEAHGT USA_SEARAD_NE USA_SEARAD_SE USA_SEARAD_SW USA_SEARAD_NW STORM_SPEED STORM_DIR
1857279N18282 1857 15 NA CS NOT_NAMED 1857-10-05 12:00:00 TS 18.0000 -78.0000 main 15 0 _____________O -1 18.0000 -78.0000 TD 30 10 347
1857279N18282 1857 15 NA CS NOT_NAMED 1857-10-05 15:00:00 TS 18.4600 -78.1123 main 11 11 _____________P -1 18.4600 -78.1123 TD 30 9 348
1857279N18282 1857 15 NA CS NOT_NAMED 1857-10-05 18:00:00 TS 18.9000 -78.2000 main 55 55 _____________O -1 18.9000 -78.2000 TD 30 9 351
1857279N18282 1857 15 NA CS NOT_NAMED 1857-10-05 21:00:00 TS 19.3075 -78.2501 main 84 63 _____________P -1 19.3075 -78.2501 TD 30 8 353
1857279N18282 1857 15 NA CS NOT_NAMED 1857-10-06 00:00:00 TS 19.7000 -78.3000 main 63 62 _____________O -1 19.7000 -78.3000 TD 30 8 350
1857279N18282 1857 15 NA CS NOT_NAMED 1857-10-06 03:00:00 TS 20.1000 -78.3999 main 78 49 _____________P -1 20.1000 -78.3999 TD 30 8 347
1857279N18282 1857 15 NA CS NOT_NAMED 1857-10-06 06:00:00 TS 20.5000 -78.5000 main 49 11 _____________O -1 20.5000 -78.5000 TD 30 8 350
1857279N18282 1857 15 NA CS NOT_NAMED 1857-10-06 09:00:00 TS 20.9000 -78.5501 main 15 10 _____________P -1 20.9000 -78.5501 TD 30 8 353
1857279N18282 1857 15 NA CS NOT_NAMED 1857-10-06 12:00:00 TS 21.3000 -78.6000 main 10 0 _____________O -1 21.3000 -78.6000 TD 30 8 351
1857279N18282 1857 15 NA NA NOT_NAMED 1857-10-06 15:00:00 TS 21.7075 -78.6850 main 0 0 _____________P -1 21.7075 -78.6850 TD 30 8 347
1857279N18282 1857 15 NA NA NOT_NAMED 1857-10-06 18:00:00 TS 22.1000 -78.8000 main 0 0 _____________O -1 22.1000 -78.8000 TD 30 8 342
1857279N18282 1857 15 NA NA NOT_NAMED 1857-10-06 21:00:00 TS 22.4500 -78.9426 main 22 22 _____________P -1 22.4500 -78.9426 TD 30 8 338
1857279N18282 1857 15 NA NA NOT_NAMED 1857-10-07 00:00:00 TS 22.8000 -79.1000 main 46 45 _____________O -1 22.8000 -79.1000 TD 30 8 339
1857279N18282 1857 15 NA NA NOT_NAMED 1857-10-07 03:00:00 TS 23.2000 -79.2575 main 63 63 _____________P -1 23.2000 -79.2575 TD 32 9 341
1857279N18282 1857 15 NA NA NOT_NAMED 1857-10-07 06:00:00 TS 23.6000 -79.4000 main 99 99 _____________O -1 23.6000 -79.4000 TS 35 8 343
1857279N18282 1857 15 NA NA NOT_NAMED 1857-10-07 09:00:00 TS 23.9725 -79.5151 main 121 115 _____________P -1 23.9725 -79.5151 TS 37 7 345
1857279N18282 1857 15 NA NA NOT_NAMED 1857-10-07 12:00:00 TS 24.3000 -79.6000 main 116 90 _____________O -1 24.3000 -79.6000 TS 40 6 348
1857279N18282 1857 15 NA NA NOT_NAMED 1857-10-07 15:00:00 TS 24.5725 -79.6576 main 90 78 _____________P -1 24.5725 -79.6576 TS 42 5 350
1857279N18282 1857 15 NA NA NOT_NAMED 1857-10-07 18:00:00 TS 24.8000 -79.7000 main 78 71 _____________O -1 24.8000 -79.7000 TS 45 4 350
1857279N18282 1857 15 NA NA NOT_NAMED 1857-10-07 21:00:00 TS 25.0075 -79.7500 main 61 60 _____________P -1 25.0075 -79.7500 TS 47 4 348
1857279N18282 1857 15 NA NA NOT_NAMED 1857-10-08 00:00:00 TS 25.2000 -79.8000 main 60 51 _____________O -1 25.2000 -79.8000 TS 50 4 348
1857279N18282 1857 15 NA NA NOT_NAMED 1857-10-08 03:00:00 TS 25.4000 -79.8500 main 41 30 _____________P -1 25.4000 -79.8500 TS 52 4 348
1857279N18282 1857 15 NA NA NOT_NAMED 1857-10-08 06:00:00 TS 25.6000 -79.9000 main 30 20 _____________O -1 25.6000 -79.9000 TS 55 4 352
1857279N18282 1857 15 NA NA NOT_NAMED 1857-10-08 09:00:00 TS 25.7699 -79.9055 main 20 9 _____________P -1 25.7699 -79.9055 TS 60 4 348
1857279N18282 1857 15 NA NA NOT_NAMED 1857-10-08 12:00:00 TS 26.0000 -80.0000 main 9 0 _____________O -1 26.0000 -80.0000 HU 65 7 329
1857279N18282 1857 15 NA NA NOT_NAMED 1857-10-08 15:00:00 TS 26.3777 -80.3120 main 0 0 _____________P -1 26.3777 -80.3120 HU 62 10 322
1857279N18282 1857 15 NA NA NOT_NAMED 1857-10-08 18:00:00 TS 26.8000 -80.7000 main 0 0 _____________O -1 26.8000 -80.7000 TS 60 10 316
1857279N18282 1857 15 NA NA NOT_NAMED 1857-10-08 21:00:00 TS 27.1051 -81.0968 main 0 0 _____________P -1 27.1051 -81.0968 TS 55 9 323
1857279N18282 1857 15 NA NA NOT_NAMED 1857-10-09 00:00:00 TS 27.5000 -81.3000 main 0 0 _____________O -1 27.5000 -81.3000 TS 50 10 0
1857279N18282 1857 15 NA NA NOT_NAMED 1857-10-09 03:00:00 TS 28.1477 -81.0838 main 0 0 _____________P -1 28.1477 -81.0838 TS 47 15 21
1857279N18282 1857 15 NA NA NOT_NAMED 1857-10-09 06:00:00 TS 28.9000 -80.7000 main 9 9 _____________O -1 28.9000 -80.7000 TS 45 16 20
1857279N18282 1857 15 NA NA NOT_NAMED 1857-10-09 09:00:00 TS 29.6147 -80.4715 main 62 62 _____________P -1 29.6147 -80.4715 TS 45 15 17
1857279N18282 1857 15 NA NA NOT_NAMED 1857-10-09 12:00:00 TS 30.3000 -80.2000 main 117 117 _____________O -1 30.3000 -80.2000 TS 45 15 25
1857279N18282 1857 15 NA NA NOT_NAMED 1857-10-09 15:00:00 TS 30.9980 -79.7215 main 151 139 _____________P -1 30.9980 -79.7215 TS 45 14 33
1857279N18282 1857 15 NA NA NOT_NAMED 1857-10-09 18:00:00 TS 31.5000 -79.3000 main 139 134 _____________O -1 31.5000 -79.3000 TS 45 8 36
1857279N18282 1857 15 NA NA NOT_NAMED 1857-10-09 21:00:00 TS 31.6322 -79.1890 main 134 134 _____________P -1 31.6322 -79.1890 TS 45 1 40
1857279N18282 1857 15 NA NA NOT_NAMED 1857-10-10 00:00:00 TS 31.6000 -79.2000 main 134 125 _____________O -1 31.6000 -79.2000 TS 45 0 0
1857279N18282 1857 15 NA NA NOT_NAMED 1857-10-10 03:00:00 TS 31.6575 -79.1575 main 125 125 _____________P -1 31.6575 -79.1575 TS 45 1 40
1857279N18282 1857 15 NA NA NOT_NAMED 1857-10-10 06:00:00 TS 31.7000 -79.1000 main 131 131 _____________O -1 31.7000 -79.1000 TS 45 1 72
1857279N18282 1857 15 NA NA NOT_NAMED 1857-10-10 09:00:00 TS 31.7000 -79.0000 main 137 137 _____________P -1 31.7000 -79.0000 TS 45 2 90
1857279N18282 1857 15 NA NA NOT_NAMED 1857-10-10 12:00:00 TS 31.7000 -78.9000 main 144 137 _____________O -1 31.7000 -78.9000 TS 45 0 106
1857279N18282 1857 15 NA NA NOT_NAMED 1857-10-10 15:00:00 TS 31.6892 -78.9538 main 137 136 _____________P -1 31.6892 -78.9538 TS 45 1 40
1857279N18282 1857 15 NA NA NOT_NAMED 1857-10-10 18:00:00 TS 31.8000 -78.8000 main 143 137 _____________O -1 31.8000 -78.8000 TS 45 8 55
1857279N18282 1857 15 NA NA NOT_NAMED 1857-10-10 21:00:00 TS 32.1621 -78.1733 main 143 143 _____________P -1 32.1621 -78.1733 TS 45 16 59
1857279N18282 1857 15 NA NA NOT_NAMED 1857-10-11 00:00:00 TS 32.6000 -77.2000 main 162 162 _____________O -1 32.6000 -77.2000 TS 45 19 67
1857279N18282 1857 15 NA NA NOT_NAMED 1857-10-11 03:00:00 TS 32.9156 -76.0518 main 204 200 _____________P -1 32.9156 -76.0518 TS 45 21 73
1857279N18282 1857 15 NA NA NOT_NAMED 1857-10-11 06:00:00 TS 33.2000 -74.8000 main 229 229 _____________O -1 33.2000 -74.8000 TS 45 21 72
1857279N18282 1857 15 NA NA NOT_NAMED 1857-10-11 09:00:00 TS 33.5585 -73.6515 main 279 279 _____________P -1 33.5585 -73.6515 TS 45 20 73
1857279N18282 1857 15 NA NA NOT_NAMED 1857-10-11 12:00:00 TS 33.8000 -72.5000 main 352 352 _____________O -1 33.8000 -72.5000 TS 45 20 84
1857279N18282 1857 15 NA NA NOT_NAMED 1857-10-11 15:00:00 TS 33.7588 -71.3128 main 442 442 _____________P -1 33.7588 -71.3128 TS 42 20 96
1857279N18282 1857 15 NA NA NOT_NAMED 1857-10-11 18:00:00 TS 33.6000 -70.1000 main 550 550 _____________O -1 33.6000 -70.1000 TS 40 21 98
1857279N18282 1857 15 NA NA NOT_NAMED 1857-10-11 21:00:00 TS 33.4826 -68.8584 main 654 654 _____________P -1 33.4826 -68.8584 TS 37 21 95
1857279N18282 1857 15 NA NA NOT_NAMED 1857-10-12 00:00:00 TS 33.4000 -67.6000 main 769 _____________O -1 33.4000 -67.6000 TS 35 21 94

About IBTrACS Database

This database is a web-friendly format of International Best Track Archive for Climate Stewardship (IBTrACS), a global best track data archive curated by NOAA dating back to 1842.

Updated: 2021-10-21